Terminal Aerodrome Forecast
Issued by NWS Jackson, KY

Home | Current Version | Previous Version | Text Only | Print | Product List | Glossary Off
Versions: 1 2 3 4 5 6 7 8 9 10 11 12

000
FTUS43 KJKL 261138
TAFJKL
TAF
KJKL 261138Z 2612/2712 00000KT 5SM -SHRA BR FEW008 BKN050 OVC150
     FM261600 VRB03KT P6SM BKN150
     FM262000 VRB03KT P6SM VCTS SCT050CB
     FM270000 VRB03KT P6SM SCT100=

USA.gov is the U.S. government's official web portal to all federal, state and local government web resources and services.